This is the latest recevied weather packets stored in our database for station/object AI5KP-13. If no packets are shown the sender has not sent any weather packets the latest 10 day(s).
| Time | Temp. | Humidity | Pressure | Rain* | Wind** | Luminosity | Snow |
|---|---|---|---|---|---|---|---|
| 1777559249 | 13.89° C | 66% | 1017.8 hPa | 0 mm | - | 256 W/m² | - |
| 1777558944 | 13.89° C | 65% | 1017.9 hPa | 0 mm | - | 231 W/m² | - |
| 1777558640 | 13.89° C | 66% | 1017.7 hPa | 0 mm | - | 208 W/m² | - |
| 1777558335 | 13.89° C | 65% | 1017.3 hPa | 0 mm | - | 222 W/m² | - |
| 1777558033 | 13.33° C | 64% | 1017.3 hPa | 0 mm | - | 239 W/m² | - |
| 1777557729 | 12.78° C | 67% | 1017 hPa | 0 mm | - | 223 W/m² | - |
| 1777557425 | 13.33° C | 68% | 1017.1 hPa | 0 mm | - | 236 W/m² | - |
| 1777557122 | 12.78° C | 68% | 1017.4 hPa | 0 mm | - | 222 W/m² | - |
| 1777556817 | 13.33° C | 66% | 1017.4 hPa | 0 mm | - | 182 W/m² | - |
| 1777556514 | 13.33° C | 69% | 1017.4 hPa | 0 mm | - | 162 W/m² | - |
| 1777556213 | 12.78° C | 69% | 1017.5 hPa | 0 mm | - | 202 W/m² | - |
| 1777555910 | 12.22° C | 70% | 1017.4 hPa | 0 mm | - | 183 W/m² | - |
| 1777555605 | 12.78° C | 72% | 1017.5 hPa | 0 mm | - | 187 W/m² | - |
| 1777555303 | 12.78° C | 74% | 1017.2 hPa | 0 mm | - | 175 W/m² | - |
| 1777554999 | 12.78° C | 73% | 1017.4 hPa | 0 mm | - | 176 W/m² | - |
| 1777554696 | 12.22° C | 74% | 1017.4 hPa | 0 mm | - | 186 W/m² | - |
| 1777554393 | 12.22° C | 74% | 1017.8 hPa | 0 mm | - | 150 W/m² | - |
| 1777554090 | 12.22° C | 75% | 1017.7 hPa | 0 mm | - | 115 W/m² | - |
| 1777553786 | 10.56° C | 88% | 1017.8 hPa | 0 mm | - | 105 W/m² | - |
| 1777553483 | 9.44° C | 89% | 1017.8 hPa | 0 mm | - | 89 W/m² | - |
| 1777553179 | 10° C | 89% | 1017.9 hPa | 0 mm | - | 84 W/m² | - |
| 1777552875 | 10.56° C | 86% | 1017.8 hPa | 0 mm | - | 70 W/m² | - |
| 1777552570 | 9.44° C | 89% | 1017.6 hPa | 0 mm | - | 72 W/m² | - |
| 1777552266 | 8.89° C | 92% | 1017.6 hPa | 0 mm | - | 66 W/m² | - |
| 1777551963 | 8.33° C | 93% | 1017.8 hPa | 0 mm | - | 57 W/m² | - |
* Rain latest hour (hover to see other rain measurements)
** Current wind speed in m/s (hover to see current wind gust speed)